หน้าหลัก
METAR-TAF:

METAR-TAF

ท่าอากาศยาน :

Dire Dawa, เอธิโอเปีย

ละติจูด: 09-36N, ลองจิจูด: 041-52E, ความสูง: 1146 ม.

METAR: หายไป

เวลา: 22:17 (19:17 UTC)

การพยากรณ์

รายงานได้ทำขึ้นเมื่อ 3 ชั่วโมงและ 47 นาทีที่แล้ว ณ เวลา 15:30 UTC
การพยากรณ์มีผลตั้งแต่วันที่ 27 ณ เวลา 18 UTC จนถึงวันที่ 28 ณ เวลา 24 UTC
ลม 8 นอตจากใต้/ตะวันออกเฉียงใต้
ทัศนวิสัย 10 กม. หรือมากกว่า
มีเมฆกระจายเป็นบางส่วนที่ความสูง 2600 ฟุต
มีเมฆน้อยที่ความสูง 10000 ฟุต
กำลังกลายเป็น
ตั้งแต่วันที่ 27 ณ เวลา 18 UTC จนถึงวันที่ 27 ณ เวลา 23 UTC
ลม 4 นอตจากใต้/ตะวันออกเฉียงใต้
มีเมฆเป็นส่วนมากเว้นเป็นระยะที่ความสูง 3000 ฟุต
ฝนตกเล็กน้อย,

TAF: HADR 271530Z 2718/2824 16008KT 9999 SCT026 FEW100 BECMG 2718/2723 16004KT -RA BKN030

สังเกตการณ์สภาพอากาศและพยากรณ์อากาศของสนามบินมากกว่า 4000 แห่ง (รายงาน METAR และ TAF).

สถานีที่ดูได้จะแสดงไว้ด้วยจุดสีเหลืองและสีแดงบนแผนที่.

เลื่อนเมาส์ไปเหนือจุดเพื่อดูชื่อสถานี.

แล้วคลิกเพื่อดูสังเกตการณ์และการพยากรณ์สภาพอากาศ.

ในการเปลี่ยนแผนที่: คลิกที่ปุ่มสีเขียวที่มีกากบาทสีดำเพื่อซูมเข้า; ที่ปุ่มสีเขียวที่มีขีดเพื่อซูมออก; หรือที่ลูกศรสีเขียวเพื่อไปยังแผนที่ที่อยู่ติดกัน.


METAR-TAF: